• Join FlightAware (Why Join?)
  • Login
  • US Flag 
01:13PM EDT


 

Airport Tracker/Info


-or-


 

Live Flight TrackerFlight Track Log ✈ SWA208 ✈ 23-Apr-2013 ✈ KSNA - KSFO

Flight Track Log - Related Links

Times and Time Zones

All times are in EDT time to prevent confusion due to time zone crossing. See the SWA208 flight status page for this flight to view local times or setup timezone preferences in your user account.

Time Position Orientation Groundspeed Altitude Reporting Facility
EDT Latitude Longitude Course Direction KTS MPH feet Rate Location/Type
11:10PM 33.6533 -117.8803 195° South 137 158 1,600  Level Los Angeles Center
11:11PM 33.6150 -117.8922 195° South 140 161 3,000 1,920 Climbing Los Angeles Center
11:12PM 33.5625 -117.9047 191° South 182 209 6,000 3,600 Climbing Los Angeles Center
11:13PM 33.5086 -117.9894 233° Southwest 272 313 11,200 4,140 Climbing Los Angeles Center
11:14PM 33.4756 -118.0933 249° West 316 364 14,600 3,900 Climbing Los Angeles Center
11:15PM 33.4400 -118.2092 250° West 356 410 19,200 3,960 Climbing Los Angeles Center
11:16PM 33.4033 -118.3253 249° West 366 421 22,800 3,000 Climbing Los Angeles Center
11:17PM 33.3953 -118.4294 265° West 391 450 25,400 3,120 Climbing Los Angeles Center
11:18PM 33.4867 -118.5528 312° West 415 478 29,200 3,120 Climbing Los Angeles Center
11:19PM 33.5719 -118.6519 316° Northwest 421 484 31,900 2,820 Climbing Los Angeles Center
11:20PM 33.6725 -118.7706 316° Northwest 418 481 35,100 2,580 Climbing Los Angeles Center
11:21PM 33.7556 -118.8697 315° West 418 481 37,300 1,380 Climbing Los Angeles Center
11:22PM 33.8417 -118.9639 318° Northwest 417 480 38,000 300 Climbing Los Angeles Center
11:23PM 33.9117 -119.0414 317° Northwest 424 488 38,000  Level Los Angeles Center
11:24PM 34.0158 -119.1567 317° Northwest 423 487 38,000  Level Los Angeles Center
11:25PM 34.1031 -119.2547 317° Northwest 428 493 38,000  Level Los Angeles Center
11:26PM 34.1908 -119.3511 318° Northwest 426 490 38,000  Level Los Angeles Center
11:27PM 34.2778 -119.4494 317° Northwest 428 493 38,000  Level Los Angeles Center
11:28PM 34.3653 -119.5489 317° Northwest 431 496 38,000  Level Los Angeles Center
11:29PM 34.4728 -119.6681 318° Northwest 435 501 38,000  Level Los Angeles Center
11:30PM 34.5606 -119.7672 317° Northwest 433 498 38,000  Level Los Angeles Center
11:31PM 34.6561 -119.8725 318° Northwest 434 499 38,000  Level Los Angeles Center
11:32PM 34.7461 -119.9706 318° Northwest 435 501 38,000  Level Los Angeles Center
11:33PM 34.8336 -120.0714 317° Northwest 434 499 38,000  Level Los Angeles Center
11:35PM 34.9172 -120.1667 317° Northwest 435 501 38,000  Level Los Angeles Center
11:36PM 35.0047 -120.2658 317° Northwest 434 499 38,000  Level Los Angeles Center
11:37PM 35.0911 -120.3647 317° Northwest 431 496 38,000  Level Los Angeles Center
11:38PM 35.1950 -120.4844 317° Northwest 431 496 38,000  Level Los Angeles Center
11:39PM 35.2814 -120.5853 316° Northwest 432 497 38,000  Level Los Angeles Center
11:40PM 35.3742 -120.6800 320° Northwest 438 504 38,000  Level Los Angeles Center
11:40PM 35.4261 -120.7275 323° Northwest 434 499 38,000  Level Oakland Center
11:41PM 35.5244 -120.8164 324° Northwest 436 502 38,000  Level Oakland Center
11:42PM 35.6222 -120.9075 323° Northwest 438 504 38,000  Level Oakland Center
11:43PM 35.7194 -120.9956 324° Northwest 432 497 38,000  Level Oakland Center
11:44PM 35.8161 -121.0864 323° Northwest 435 501 38,000  Level Oakland Center
11:45PM 35.9128 -121.1756 323° Northwest 432 497 38,000  Level Oakland Center
11:46PM 36.0097 -121.2675 323° Northwest 436 502 38,000  Level Oakland Center
11:47PM 36.1072 -121.3586 323° Northwest 438 504 38,000 -480 Level Oakland Center
11:48PM 36.2053 -121.4489 323° Northwest 437 503 37,100 -1,260 Descending Oakland Center
11:49PM 36.3236 -121.5611 323° Northwest 446 513 35,500 -2,820 Descending Oakland Center
11:50PM 36.4222 -121.6561 322° Northwest 450 518 31,400 -4,020 Descending Oakland Center
11:51PM 36.5206 -121.7511 322° Northwest 447 514 27,400 -3,960 Descending Oakland Center
11:52PM 36.5500 -121.7833 319° Northwest 457 526 26,500 -3,360 Descending Northern Cal TRACON
11:53PM 36.6500 -121.8833 321° Northwest 431 496 22,900 -3,240 Descending Northern Cal TRACON
11:54PM 36.7500 -121.9500 332° Northwest 409 471 19,800 -3,180 Descending Northern Cal TRACON
11:55PM 36.8500 -121.9833 345° North 391 450 16,900 -2,820 Descending Northern Cal TRACON
11:55PM 36.9094 -122.0069 342° North 384 442 15,000 -2,640 Descending Oakland Center
11:56PM 37.0103 -122.0331 348° North 371 427 12,100 -2,280 Descending Oakland Center
11:57PM 37.1211 -122.0608 349° North 339 390 10,400 -1,320 Descending Oakland Center
11:58PM 37.1969 -122.0817 348° North 285 328 9,500 -1,200 Descending Oakland Center
11:59PM 37.2692 -122.1014 348° North 268 308 8,000 -1,680 Descending Oakland Center
12:00AM 37.3414 -122.1203 348° North 267 307 6,200 -1,380 Descending Oakland Center
12:02AM 37.4131 -122.1403 348° North 265 305 5,200 -660 Descending Oakland Center
12:03AM 37.4797 -122.1567 349° North 251 289 4,900 -840 Descending Oakland Center
12:04AM 37.5358 -122.1922 333° Northwest 233 268 3,500 -1,140 Descending Oakland Center
12:05AM 37.5658 -122.2517 302° West 214 246 2,600 -1,200 Descending Oakland Center
12:06AM 37.5836 -122.2964 297° West 174 200 1,100 -1,140 Descending Oakland Center
12:07AM 37.6000 -122.3350 298° West 146 168 400 -720 Descending Oakland Center
12:10AM 37.6167 -122.3667 322° Northwest  Level FlightAware Approximate